sensor_id;sensor_type;location;lat;lon;timestamp;pressure;altitude;pressure_sealevel;temperature;humidity
66396;BME280;72184;51.378;-1.342;2024-03-22T00:00:08;100810.38;;;19.07;38.11
66396;BME280;72184;51.378;-1.342;2024-03-22T00:02:35;100803.83;;;20.01;38.08
66396;BME280;72184;51.378;-1.342;2024-03-22T00:05:03;100801.35;;;20.00;38.09
66396;BME280;72184;51.378;-1.342;2024-03-22T00:07:31;100805.70;;;19.98;38.09
66396;BME280;72184;51.378;-1.342;2024-03-22T00:09:58;100800.47;;;19.97;38.09
66396;BME280;72184;51.378;-1.342;2024-03-22T00:12:25;100798.22;;;19.73;38.09
66396;BME280;72184;51.378;-1.342;2024-03-22T00:14:52;100796.53;;;19.73;38.08
66396;BME280;72184;51.378;-1.342;2024-03-22T00:17:20;100792.91;;;19.72;38.07
66396;BME280;72184;51.378;-1.342;2024-03-22T00:19:47;100787.75;;;19.93;38.06
66396;BME280;72184;51.378;-1.342;2024-03-22T00:22:14;100784.88;;;19.92;38.06
66396;BME280;72184;51.378;-1.342;2024-03-22T00:24:41;100777.73;;;19.91;38.05
66396;BME280;72184;51.378;-1.342;2024-03-22T00:27:09;100772.24;;;19.91;38.03
66396;BME280;72184;51.378;-1.342;2024-03-22T00:29:36;100763.37;;;19.90;38.03
66396;BME280;72184;51.378;-1.342;2024-03-22T00:32:04;100760.89;;;19.89;38.02
66396;BME280;72184;51.378;-1.342;2024-03-22T00:34:31;100756.15;;;19.88;38.03
66396;BME280;72184;51.378;-1.342;2024-03-22T00:36:58;100754.97;;;19.87;38.03
66396;BME280;72184;51.378;-1.342;2024-03-22T00:39:26;100760.81;;;19.86;38.02
66396;BME280;72184;51.378;-1.342;2024-03-22T00:41:53;100755.38;;;19.85;38.03
66396;BME280;72184;51.378;-1.342;2024-03-22T00:44:21;100752.95;;;19.63;38.03
66396;BME280;72184;51.378;-1.342;2024-03-22T00:46:48;100749.44;;;19.84;38.02
66396;BME280;72184;51.378;-1.342;2024-03-22T00:49:16;100745.91;;;20.09;38.03
66396;BME280;72184;51.378;-1.342;2024-03-22T00:51:43;100747.26;;;19.82;38.04
66396;BME280;72184;51.378;-1.342;2024-03-22T00:54:10;100734.20;;;19.82;38.03
66396;BME280;72184;51.378;-1.342;2024-03-22T00:56:37;100729.24;;;19.58;38.02
66396;BME280;72184;51.378;-1.342;2024-03-22T00:59:05;100734.27;;;19.58;38.01
66396;BME280;72184;51.378;-1.342;2024-03-22T01:01:32;100736.25;;;19.79;38.00
66396;BME280;72184;51.378;-1.342;2024-03-22T01:03:59;100736.34;;;19.79;38.01
66396;BME280;72184;51.378;-1.342;2024-03-22T01:06:26;100735.98;;;19.78;37.99
66396;BME280;72184;51.378;-1.342;2024-03-22T01:08:53;100738.54;;;19.55;38.00
66396;BME280;72184;51.378;-1.342;2024-03-22T01:11:21;100744.80;;;19.77;37.98
66396;BME280;72184;51.378;-1.342;2024-03-22T01:13:48;100741.34;;;19.76;37.97
66396;BME280;72184;51.378;-1.342;2024-03-22T01:16:15;100734.54;;;19.76;37.98
66396;BME280;72184;51.378;-1.342;2024-03-22T01:18:42;100729.24;;;19.75;37.95
66396;BME280;72184;51.378;-1.342;2024-03-22T01:21:10;100730.72;;;19.74;37.96
66396;BME280;72184;51.378;-1.342;2024-03-22T01:23:37;100728.05;;;19.74;37.95
66396;BME280;72184;51.378;-1.342;2024-03-22T01:26:04;100725.13;;;19.73;37.93
66396;BME280;72184;51.378;-1.342;2024-03-22T01:28:31;100723.60;;;20.01;37.91
66396;BME280;72184;51.378;-1.342;2024-03-22T01:30:59;100723.08;;;19.73;37.90
66396;BME280;72184;51.378;-1.342;2024-03-22T01:33:26;100722.09;;;19.72;37.90
66396;BME280;72184;51.378;-1.342;2024-03-22T01:35:53;100716.11;;;19.71;37.90
66396;BME280;72184;51.378;-1.342;2024-03-22T01:38:20;100715.22;;;19.71;37.90
66396;BME280;72184;51.378;-1.342;2024-03-22T01:40:47;100719.17;;;19.71;37.89
66396;BME280;72184;51.378;-1.342;2024-03-22T01:43:15;100716.68;;;19.70;37.91
66396;BME280;72184;51.378;-1.342;2024-03-22T01:45:42;100717.07;;;19.70;37.89
66396;BME280;72184;51.378;-1.342;2024-03-22T01:48:09;100714.07;;;19.70;37.88
66396;BME280;72184;51.378;-1.342;2024-03-22T01:50:36;100708.67;;;19.68;37.88
66396;BME280;72184;51.378;-1.342;2024-03-22T01:53:05;100702.82;;;19.68;37.88
66396;BME280;72184;51.378;-1.342;2024-03-22T01:55:32;100706.49;;;19.68;37.87
66396;BME280;72184;51.378;-1.342;2024-03-22T01:57:59;100711.35;;;19.67;37.87
66396;BME280;72184;51.378;-1.342;2024-03-22T02:00:26;100713.32;;;19.66;37.87
66396;BME280;72184;51.378;-1.342;2024-03-22T02:02:54;100706.15;;;19.66;37.88
66396;BME280;72184;51.378;-1.342;2024-03-22T02:05:21;100698.68;;;19.66;37.87
66396;BME280;72184;51.378;-1.342;2024-03-22T02:07:48;100689.00;;;19.65;37.87
66396;BME280;72184;51.378;-1.342;2024-03-22T02:10:16;100682.85;;;19.65;37.85
66396;BME280;72184;51.378;-1.342;2024-03-22T02:12:43;100682.13;;;19.66;37.84
66396;BME280;72184;51.378;-1.342;2024-03-22T02:15:11;100682.55;;;19.65;37.83
66396;BME280;72184;51.378;-1.342;2024-03-22T02:17:38;100685.14;;;19.65;37.82
66396;BME280;72184;51.378;-1.342;2024-03-22T02:20:06;100679.17;;;19.65;37.82
66396;BME280;72184;51.378;-1.342;2024-03-22T02:22:33;100677.84;;;19.64;37.80
66396;BME280;72184;51.378;-1.342;2024-03-22T02:25:00;100679.16;;;19.64;37.80
66396;BME280;72184;51.378;-1.342;2024-03-22T02:27:28;100677.89;;;19.64;37.79
66396;BME280;72184;51.378;-1.342;2024-03-22T02:29:56;100676.46;;;19.63;37.78
66396;BME280;72184;51.378;-1.342;2024-03-22T02:32:23;100674.13;;;19.62;37.77
66396;BME280;72184;51.378;-1.342;2024-03-22T02:34:50;100670.90;;;19.62;37.76
66396;BME280;72184;51.378;-1.342;2024-03-22T02:37:17;100655.00;;;19.62;37.74
66396;BME280;72184;51.378;-1.342;2024-03-22T02:39:45;100653.92;;;19.63;37.73
66396;BME280;72184;51.378;-1.342;2024-03-22T02:42:12;100647.34;;;19.62;37.71
66396;BME280;72184;51.378;-1.342;2024-03-22T02:44:39;100641.66;;;19.62;37.69
66396;BME280;72184;51.378;-1.342;2024-03-22T02:47:06;100642.80;;;19.88;37.67
66396;BME280;72184;51.378;-1.342;2024-03-22T02:49:34;100641.59;;;19.61;37.67
66396;BME280;72184;51.378;-1.342;2024-03-22T02:52:01;100642.06;;;19.60;37.66
66396;BME280;72184;51.378;-1.342;2024-03-22T02:54:28;100644.18;;;19.60;37.64
66396;BME280;72184;51.378;-1.342;2024-03-22T02:56:55;100640.85;;;19.60;37.61
66396;BME280;72184;51.378;-1.342;2024-03-22T02:59:25;100641.47;;;19.59;37.61
66396;BME280;72184;51.378;-1.342;2024-03-22T03:01:53;100640.94;;;19.86;37.60
66396;BME280;72184;51.378;-1.342;2024-03-22T03:04:20;100635.67;;;19.58;37.59
66396;BME280;72184;51.378;-1.342;2024-03-22T03:06:47;100632.94;;;19.57;37.59
66396;BME280;72184;51.378;-1.342;2024-03-22T03:09:14;100629.26;;;19.56;37.61
66396;BME280;72184;51.378;-1.342;2024-03-22T03:11:42;100620.68;;;19.55;37.60
66396;BME280;72184;51.378;-1.342;2024-03-22T03:14:09;100613.87;;;19.54;37.60
66396;BME280;72184;51.378;-1.342;2024-03-22T03:16:36;100604.35;;;19.54;37.59
66396;BME280;72184;51.378;-1.342;2024-03-22T03:19:03;100595.03;;;19.54;37.59
66396;BME280;72184;51.378;-1.342;2024-03-22T03:21:30;100598.26;;;19.53;37.58
66396;BME280;72184;51.378;-1.342;2024-03-22T03:23:58;100600.56;;;19.52;37.58
66396;BME280;72184;51.378;-1.342;2024-03-22T03:26:25;100600.31;;;19.52;37.57
66396;BME280;72184;51.378;-1.342;2024-03-22T03:28:52;100598.20;;;19.52;37.56
66396;BME280;72184;51.378;-1.342;2024-03-22T03:31:19;100596.44;;;19.52;37.56
66396;BME280;72184;51.378;-1.342;2024-03-22T03:33:47;100596.17;;;19.52;37.55
66396;BME280;72184;51.378;-1.342;2024-03-22T03:36:14;100591.39;;;19.51;37.55
66396;BME280;72184;51.378;-1.342;2024-03-22T03:38:41;100588.34;;;19.51;37.56
66396;BME280;72184;51.378;-1.342;2024-03-22T03:41:08;100588.35;;;19.50;37.56
66396;BME280;72184;51.378;-1.342;2024-03-22T03:43:35;100588.55;;;19.51;37.54
66396;BME280;72184;51.378;-1.342;2024-03-22T03:46:03;100585.46;;;19.50;37.55
66396;BME280;72184;51.378;-1.342;2024-03-22T03:48:31;100586.96;;;19.49;37.53
66396;BME280;72184;51.378;-1.342;2024-03-22T03:50:59;100587.23;;;19.49;37.54
66396;BME280;72184;51.378;-1.342;2024-03-22T03:53:26;100590.38;;;19.49;37.54
66396;BME280;72184;51.378;-1.342;2024-03-22T03:55:54;100596.58;;;19.49;37.54
66396;BME280;72184;51.378;-1.342;2024-03-22T03:58:21;100591.64;;;19.75;37.53
66396;BME280;72184;51.378;-1.342;2024-03-22T04:00:48;100590.06;;;19.48;37.53
66396;BME280;72184;51.378;-1.342;2024-03-22T04:03:15;100587.41;;;19.48;37.54
66396;BME280;72184;51.378;-1.342;2024-03-22T04:05:43;100586.47;;;19.47;37.53
66396;BME280;72184;51.378;-1.342;2024-03-22T04:08:10;100587.77;;;19.96;37.54
66396;BME280;72184;51.378;-1.342;2024-03-22T04:10:37;100582.47;;;19.46;37.54
66396;BME280;72184;51.378;-1.342;2024-03-22T04:13:04;100591.55;;;19.46;37.54
66396;BME280;72184;51.378;-1.342;2024-03-22T04:15:34;100592.79;;;19.45;37.56
66396;BME280;72184;51.378;-1.342;2024-03-22T04:18:02;100591.13;;;19.44;37.57
66396;BME280;72184;51.378;-1.342;2024-03-22T04:20:29;100586.41;;;19.44;37.57
66396;BME280;72184;51.378;-1.342;2024-03-22T04:22:56;100585.27;;;19.71;37.57
66396;BME280;72184;51.378;-1.342;2024-03-22T04:25:23;100581.01;;;19.44;37.57
66396;BME280;72184;51.378;-1.342;2024-03-22T04:27:51;100578.13;;;19.44;37.57
66396;BME280;72184;51.378;-1.342;2024-03-22T04:30:18;100579.31;;;19.44;37.57
66396;BME280;72184;51.378;-1.342;2024-03-22T04:32:46;100571.33;;;19.44;37.56
66396;BME280;72184;51.378;-1.342;2024-03-22T04:35:14;100574.70;;;19.44;37.56
66396;BME280;72184;51.378;-1.342;2024-03-22T04:37:41;100575.48;;;19.43;37.57
66396;BME280;72184;51.378;-1.342;2024-03-22T04:40:09;100573.25;;;19.43;37.58
66396;BME280;72184;51.378;-1.342;2024-03-22T04:42:36;100574.58;;;19.43;37.56
66396;BME280;72184;51.378;-1.342;2024-03-22T04:45:04;100572.01;;;19.43;37.57
66396;BME280;72184;51.378;-1.342;2024-03-22T04:47:32;100570.66;;;19.43;37.56
66396;BME280;72184;51.378;-1.342;2024-03-22T04:49:59;100574.10;;;19.42;37.57
66396;BME280;72184;51.378;-1.342;2024-03-22T04:52:26;100573.47;;;19.43;37.57
66396;BME280;72184;51.378;-1.342;2024-03-22T04:54:54;100572.24;;;19.43;37.57
66396;BME280;72184;51.378;-1.342;2024-03-22T04:57:21;100567.18;;;19.44;37.56
66396;BME280;72184;51.378;-1.342;2024-03-22T04:59:48;100569.87;;;19.71;37.56
66396;BME280;72184;51.378;-1.342;2024-03-22T05:02:15;100566.79;;;19.70;37.56
66396;BME280;72184;51.378;-1.342;2024-03-22T05:04:42;100564.32;;;19.42;37.56
66396;BME280;72184;51.378;-1.342;2024-03-22T05:07:10;100565.91;;;19.42;37.57
66396;BME280;72184;51.378;-1.342;2024-03-22T05:09:37;100570.71;;;19.42;37.57
66396;BME280;72184;51.378;-1.342;2024-03-22T05:12:04;100571.08;;;19.69;37.58
66396;BME280;72184;51.378;-1.342;2024-03-22T05:14:32;100569.20;;;19.41;37.59
66396;BME280;72184;51.378;-1.342;2024-03-22T05:16:59;100570.15;;;19.90;37.59
66396;BME280;72184;51.378;-1.342;2024-03-22T05:19:26;100565.73;;;19.40;37.59
66396;BME280;72184;51.378;-1.342;2024-03-22T05:21:53;100562.71;;;19.40;37.60
66396;BME280;72184;51.378;-1.342;2024-03-22T05:24:21;100560.98;;;19.66;37.60
66396;BME280;72184;51.378;-1.342;2024-03-22T05:26:48;100561.74;;;19.66;37.60
66396;BME280;72184;51.378;-1.342;2024-03-22T05:29:15;100560.09;;;19.39;37.62
66396;BME280;72184;51.378;-1.342;2024-03-22T05:31:47;100560.49;;;19.88;37.61
66396;BME280;72184;51.378;-1.342;2024-03-22T05:34:15;100559.76;;;19.39;37.62
66396;BME280;72184;51.378;-1.342;2024-03-22T05:36:42;100558.82;;;19.39;37.62
66396;BME280;72184;51.378;-1.342;2024-03-22T05:39:09;100548.44;;;19.66;37.62
66396;BME280;72184;51.378;-1.342;2024-03-22T05:41:36;100548.30;;;19.38;37.62
66396;BME280;72184;51.378;-1.342;2024-03-22T05:44:04;100542.34;;;19.38;37.63
66396;BME280;72184;51.378;-1.342;2024-03-22T05:46:32;100544.36;;;19.38;37.63
66396;BME280;72184;51.378;-1.342;2024-03-22T05:48:59;100545.93;;;19.37;37.65
66396;BME280;72184;51.378;-1.342;2024-03-22T05:51:27;100548.73;;;19.37;37.65
66396;BME280;72184;51.378;-1.342;2024-03-22T05:53:54;100544.03;;;19.36;37.66
66396;BME280;72184;51.378;-1.342;2024-03-22T05:56:22;100542.65;;;19.35;37.68
66396;BME280;72184;51.378;-1.342;2024-03-22T05:58:50;100545.10;;;19.35;37.68
66396;BME280;72184;51.378;-1.342;2024-03-22T06:01:17;100540.70;;;19.35;37.68
66396;BME280;72184;51.378;-1.342;2024-03-22T06:03:44;100538.75;;;19.37;37.68
66396;BME280;72184;51.378;-1.342;2024-03-22T06:06:12;100538.27;;;19.86;37.68
66396;BME280;72184;51.378;-1.342;2024-03-22T06:08:39;100538.72;;;19.37;37.68
66396;BME280;72184;51.378;-1.342;2024-03-22T06:11:07;100534.36;;;19.36;37.70
66396;BME280;72184;51.378;-1.342;2024-03-22T06:13:35;100533.62;;;19.35;37.72
66396;BME280;72184;51.378;-1.342;2024-03-22T06:16:02;100536.44;;;19.35;37.71
66396;BME280;72184;51.378;-1.342;2024-03-22T06:18:29;100535.81;;;19.36;37.71
66396;BME280;72184;51.378;-1.342;2024-03-22T06:20:56;100535.79;;;19.36;37.70
66396;BME280;72184;51.378;-1.342;2024-03-22T06:23:24;100535.63;;;19.35;37.72
66396;BME280;72184;51.378;-1.342;2024-03-22T06:25:52;100537.79;;;19.84;37.72
66396;BME280;72184;51.378;-1.342;2024-03-22T06:28:19;100534.60;;;19.36;37.70
66396;BME280;72184;51.378;-1.342;2024-03-22T06:30:46;100534.57;;;19.36;37.72
66396;BME280;72184;51.378;-1.342;2024-03-22T06:33:14;100528.58;;;19.36;37.72
66396;BME280;72184;51.378;-1.342;2024-03-22T06:35:41;100522.63;;;19.61;37.72
66396;BME280;72184;51.378;-1.342;2024-03-22T06:38:08;100519.38;;;19.34;37.74
66396;BME280;72184;51.378;-1.342;2024-03-22T06:40:35;100522.25;;;19.34;37.73
66396;BME280;72184;51.378;-1.342;2024-03-22T06:43:03;100526.15;;;19.33;37.74
66396;BME280;72184;51.378;-1.342;2024-03-22T06:45:30;100526.60;;;19.34;37.75
66396;BME280;72184;51.378;-1.342;2024-03-22T06:47:57;100525.86;;;19.59;37.75
66396;BME280;72184;51.378;-1.342;2024-03-22T06:50:24;100526.62;;;19.59;37.76
66396;BME280;72184;51.378;-1.342;2024-03-22T06:52:52;100523.25;;;19.33;37.75
66396;BME280;72184;51.378;-1.342;2024-03-22T06:55:19;100525.25;;;19.33;37.75
66396;BME280;72184;51.378;-1.342;2024-03-22T06:57:47;100528.86;;;19.32;37.76
66396;BME280;72184;51.378;-1.342;2024-03-22T07:00:15;100522.93;;;19.32;37.76
66396;BME280;72184;51.378;-1.342;2024-03-22T07:02:43;100524.22;;;19.31;37.76
66396;BME280;72184;51.378;-1.342;2024-03-22T07:05:11;100521.25;;;19.30;37.78
66396;BME280;72184;51.378;-1.342;2024-03-22T07:07:39;100517.98;;;19.56;37.79
66396;BME280;72184;51.378;-1.342;2024-03-22T07:10:07;100519.01;;;19.30;37.79
66396;BME280;72184;51.378;-1.342;2024-03-22T07:12:35;100514.92;;;19.55;37.80
66396;BME280;72184;51.378;-1.342;2024-03-22T07:15:03;100518.30;;;19.56;37.81
66396;BME280;72184;51.378;-1.342;2024-03-22T07:17:31;100518.84;;;19.28;37.82
66396;BME280;72184;51.378;-1.342;2024-03-22T07:19:58;100522.43;;;19.29;37.83
66396;BME280;72184;51.378;-1.342;2024-03-22T07:22:25;100521.69;;;19.28;37.84
66396;BME280;72184;51.378;-1.342;2024-03-22T07:24:53;100519.88;;;19.55;37.83
66396;BME280;72184;51.378;-1.342;2024-03-22T07:27:20;100520.44;;;19.28;37.84
66396;BME280;72184;51.378;-1.342;2024-03-22T07:29:47;100517.95;;;19.28;37.85
66396;BME280;72184;51.378;-1.342;2024-03-22T07:32:14;100516.79;;;19.28;37.84
66396;BME280;72184;51.378;-1.342;2024-03-22T07:34:41;100515.58;;;19.55;37.84
66396;BME280;72184;51.378;-1.342;2024-03-22T07:37:09;100515.40;;;19.55;37.84
66396;BME280;72184;51.378;-1.342;2024-03-22T07:39:36;100517.02;;;19.78;37.84
66396;BME280;72184;51.378;-1.342;2024-03-22T07:42:03;100517.11;;;19.29;37.84
66396;BME280;72184;51.378;-1.342;2024-03-22T07:44:30;100517.14;;;19.29;37.84
66396;BME280;72184;51.378;-1.342;2024-03-22T07:46:58;100520.63;;;19.29;37.83
66396;BME280;72184;51.378;-1.342;2024-03-22T07:49:25;100524.49;;;19.56;37.84
66396;BME280;72184;51.378;-1.342;2024-03-22T07:51:52;100521.79;;;19.28;37.85
66396;BME280;72184;51.378;-1.342;2024-03-22T07:54:19;100511.78;;;19.54;37.85
66396;BME280;72184;51.378;-1.342;2024-03-22T07:56:47;100506.04;;;19.27;37.87
66396;BME280;72184;51.378;-1.342;2024-03-22T07:59:14;100508.84;;;19.27;37.87
66396;BME280;72184;51.378;-1.342;2024-03-22T08:01:41;100514.22;;;19.28;37.87
66396;BME280;72184;51.378;-1.342;2024-03-22T08:04:09;100510.27;;;19.28;37.88
66396;BME280;72184;51.378;-1.342;2024-03-22T08:06:36;100502.52;;;19.28;37.89
66396;BME280;72184;51.378;-1.342;2024-03-22T08:09:03;100513.39;;;19.28;37.90
66396;BME280;72184;51.378;-1.342;2024-03-22T08:11:30;100516.00;;;19.28;37.90
66396;BME280;72184;51.378;-1.342;2024-03-22T08:13:58;100508.77;;;19.77;37.91
66396;BME280;72184;51.378;-1.342;2024-03-22T08:16:25;100513.25;;;19.27;37.93
66396;BME280;72184;51.378;-1.342;2024-03-22T08:18:52;100517.48;;;19.27;37.94
66396;BME280;72184;51.378;-1.342;2024-03-22T08:21:19;100519.18;;;19.27;37.95
66396;BME280;72184;51.378;-1.342;2024-03-22T08:23:47;100521.87;;;19.26;37.96
66396;BME280;72184;51.378;-1.342;2024-03-22T08:26:14;100524.07;;;19.27;37.96
66396;BME280;72184;51.378;-1.342;2024-03-22T08:28:41;100522.00;;;19.27;37.97
66396;BME280;72184;51.378;-1.342;2024-03-22T08:31:09;100522.51;;;19.27;37.97
66396;BME280;72184;51.378;-1.342;2024-03-22T08:33:36;100528.56;;;19.26;37.99
66396;BME280;72184;51.378;-1.342;2024-03-22T08:36:03;100533.09;;;19.53;38.00
66396;BME280;72184;51.378;-1.342;2024-03-22T08:38:30;100530.82;;;19.53;38.01
66396;BME280;72184;51.378;-1.342;2024-03-22T08:40:58;100533.48;;;19.26;38.03
66396;BME280;72184;51.378;-1.342;2024-03-22T08:43:25;100534.16;;;19.25;38.03
66396;BME280;72184;51.378;-1.342;2024-03-22T08:45:52;100535.17;;;19.74;38.04
66396;BME280;72184;51.378;-1.342;2024-03-22T08:48:19;100536.21;;;19.25;38.04
66396;BME280;72184;51.378;-1.342;2024-03-22T08:50:47;100536.96;;;19.25;38.04
66396;BME280;72184;51.378;-1.342;2024-03-22T08:53:14;100528.16;;;19.25;38.06
66396;BME280;72184;51.378;-1.342;2024-03-22T08:55:45;100521.07;;;19.50;38.05
66396;BME280;72184;51.378;-1.342;2024-03-22T08:58:13;100529.88;;;19.51;38.07
66396;BME280;72184;51.378;-1.342;2024-03-22T09:00:41;100532.06;;;19.24;38.07
66396;BME280;72184;51.378;-1.342;2024-03-22T09:03:08;100544.10;;;19.51;38.07
66396;BME280;72184;51.378;-1.342;2024-03-22T09:05:36;100545.78;;;19.24;38.07
66396;BME280;72184;51.378;-1.342;2024-03-22T09:08:04;100539.91;;;19.24;38.08
66396;BME280;72184;51.378;-1.342;2024-03-22T09:10:31;100544.53;;;19.24;38.08
66396;BME280;72184;51.378;-1.342;2024-03-22T09:12:58;100540.35;;;19.25;38.07
66396;BME280;72184;51.378;-1.342;2024-03-22T09:15:26;100537.15;;;19.25;38.08
66396;BME280;72184;51.378;-1.342;2024-03-22T09:17:53;100534.14;;;19.52;38.07
66396;BME280;72184;51.378;-1.342;2024-03-22T09:20:20;100530.76;;;19.26;38.07
66396;BME280;72184;51.378;-1.342;2024-03-22T09:22:48;100523.96;;;19.25;38.06
66396;BME280;72184;51.378;-1.342;2024-03-22T09:25:15;100523.92;;;19.53;38.07
66396;BME280;72184;51.378;-1.342;2024-03-22T09:27:42;100525.15;;;19.27;38.07
66396;BME280;72184;51.378;-1.342;2024-03-22T09:30:10;100526.10;;;19.28;38.06
66396;BME280;72184;51.378;-1.342;2024-03-22T09:32:38;100531.96;;;19.28;38.06
66396;BME280;72184;51.378;-1.342;2024-03-22T09:35:06;100533.21;;;19.28;38.06
66396;BME280;72184;51.378;-1.342;2024-03-22T09:37:33;100530.96;;;19.29;38.06
66396;BME280;72184;51.378;-1.342;2024-03-22T09:40:00;100532.49;;;19.30;38.05
66396;BME280;72184;51.378;-1.342;2024-03-22T09:42:29;100531.11;;;19.30;38.05
66396;BME280;72184;51.378;-1.342;2024-03-22T09:44:59;100524.77;;;19.31;38.04
66396;BME280;72184;51.378;-1.342;2024-03-22T09:47:28;100527.31;;;19.31;38.06
66396;BME280;72184;51.378;-1.342;2024-03-22T09:49:55;100530.29;;;19.32;38.07
66396;BME280;72184;51.378;-1.342;2024-03-22T09:52:23;100536.73;;;19.32;38.09
66396;BME280;72184;51.378;-1.342;2024-03-22T09:54:50;100535.70;;;19.59;38.11
66396;BME280;72184;51.378;-1.342;2024-03-22T09:57:18;100540.20;;;19.60;38.12
66396;BME280;72184;51.378;-1.342;2024-03-22T09:59:45;100545.18;;;19.34;38.14
66396;BME280;72184;51.378;-1.342;2024-03-22T10:02:13;100541.52;;;19.34;38.16
66396;BME280;72184;51.378;-1.342;2024-03-22T10:04:41;100542.63;;;19.35;38.17
66396;BME280;72184;51.378;-1.342;2024-03-22T10:07:09;100536.32;;;19.36;38.19
66396;BME280;72184;51.378;-1.342;2024-03-22T10:09:36;100537.91;;;19.37;38.17
66396;BME280;72184;51.378;-1.342;2024-03-22T10:12:04;100540.13;;;19.65;38.19
66396;BME280;72184;51.378;-1.342;2024-03-22T10:14:32;100546.80;;;19.38;38.19
66396;BME280;72184;51.378;-1.342;2024-03-22T10:17:00;100544.45;;;19.39;38.19
66396;BME280;72184;51.378;-1.342;2024-03-22T10:19:27;100544.06;;;19.39;38.19
66396;BME280;72184;51.378;-1.342;2024-03-22T10:22:02;100542.09;;;19.41;38.19
66396;BME280;72184;51.378;-1.342;2024-03-22T10:24:30;100547.49;;;19.42;38.17
66396;BME280;72184;51.378;-1.342;2024-03-22T10:26:58;100549.88;;;19.70;38.17
66396;BME280;72184;51.378;-1.342;2024-03-22T10:29:25;100543.96;;;19.71;38.16
66396;BME280;72184;51.378;-1.342;2024-03-22T10:31:54;100542.29;;;19.44;38.16
66396;BME280;72184;51.378;-1.342;2024-03-22T10:34:22;100543.28;;;19.44;38.16
66396;BME280;72184;51.378;-1.342;2024-03-22T10:36:51;100539.77;;;19.45;38.16
66396;BME280;72184;51.378;-1.342;2024-03-22T10:39:19;100538.72;;;19.45;38.16
66396;BME280;72184;51.378;-1.342;2024-03-22T10:41:46;100543.05;;;19.44;38.16
66396;BME280;72184;51.378;-1.342;2024-03-22T10:44:14;100544.33;;;19.72;38.16
66396;BME280;72184;51.378;-1.342;2024-03-22T10:46:45;100547.78;;;19.45;38.16
66396;BME280;72184;51.378;-1.342;2024-03-22T10:49:16;100550.90;;;19.45;38.15
66396;BME280;72184;51.378;-1.342;2024-03-22T10:51:47;100547.62;;;19.46;38.14
66396;BME280;72184;51.378;-1.342;2024-03-22T10:54:20;100550.61;;;19.48;38.13
66396;BME280;72184;51.378;-1.342;2024-03-22T10:56:49;100550.25;;;19.48;38.13
66396;BME280;72184;51.378;-1.342;2024-03-22T10:59:18;100541.14;;;19.48;38.13
66396;BME280;72184;51.378;-1.342;2024-03-22T11:01:46;100533.94;;;19.48;38.11
66396;BME280;72184;51.378;-1.342;2024-03-22T11:04:16;100535.00;;;19.49;38.10
66396;BME280;72184;51.378;-1.342;2024-03-22T11:06:48;100534.10;;;19.52;38.06
66396;BME280;72184;51.378;-1.342;2024-03-22T11:09:21;100528.28;;;19.53;38.05
66396;BME280;72184;51.378;-1.342;2024-03-22T11:11:49;100527.29;;;19.53;38.04
66396;BME280;72184;51.378;-1.342;2024-03-22T11:14:19;100531.80;;;19.53;38.04
66396;BME280;72184;51.378;-1.342;2024-03-22T11:16:46;100535.88;;;19.53;38.04
66396;BME280;72184;51.378;-1.342;2024-03-22T11:19:13;100535.35;;;19.53;38.05
66396;BME280;72184;51.378;-1.342;2024-03-22T11:21:41;100535.70;;;19.52;38.07
66396;BME280;72184;51.378;-1.342;2024-03-22T11:24:08;100537.75;;;19.52;38.08
66396;BME280;72184;51.378;-1.342;2024-03-22T11:26:35;100535.34;;;19.53;38.07
66396;BME280;72184;51.378;-1.342;2024-03-22T11:29:03;100537.85;;;19.54;38.07
66396;BME280;72184;51.378;-1.342;2024-03-22T11:31:30;100536.88;;;19.80;38.07
66396;BME280;72184;51.378;-1.342;2024-03-22T11:33:57;100542.67;;;19.54;38.07
66396;BME280;72184;51.378;-1.342;2024-03-22T11:36:24;100533.89;;;19.80;38.07
66396;BME280;72184;51.378;-1.342;2024-03-22T11:38:51;100538.98;;;19.54;38.07
66396;BME280;72184;51.378;-1.342;2024-03-22T11:41:21;100539.22;;;19.56;38.05
66396;BME280;72184;51.378;-1.342;2024-03-22T11:43:50;100538.06;;;19.57;38.02
66396;BME280;72184;51.378;-1.342;2024-03-22T11:46:18;100537.85;;;19.58;38.01
66396;BME280;72184;51.378;-1.342;2024-03-22T11:48:51;100535.55;;;19.58;37.99
66396;BME280;72184;51.378;-1.342;2024-03-22T11:51:18;100535.62;;;19.58;37.98
66396;BME280;72184;51.378;-1.342;2024-03-22T11:53:49;100531.95;;;19.58;37.98
66396;BME280;72184;51.378;-1.342;2024-03-22T11:56:18;100531.22;;;19.58;37.95
66396;BME280;72184;51.378;-1.342;2024-03-22T11:58:46;100525.58;;;19.60;37.92
66396;BME280;72184;51.378;-1.342;2024-03-22T12:01:15;100524.53;;;19.60;37.91
66396;BME280;72184;51.378;-1.342;2024-03-22T12:03:44;100526.57;;;19.60;37.88
66396;BME280;72184;51.378;-1.342;2024-03-22T12:06:12;100520.16;;;19.61;37.86
66396;BME280;72184;51.378;-1.342;2024-03-22T12:08:39;100522.79;;;19.62;37.83
66396;BME280;72184;51.378;-1.342;2024-03-22T12:11:07;100526.76;;;19.63;37.80
66396;BME280;72184;51.378;-1.342;2024-03-22T12:13:34;100520.51;;;19.63;37.77
66396;BME280;72184;51.378;-1.342;2024-03-22T12:16:04;100518.06;;;19.62;37.76
66396;BME280;72184;51.378;-1.342;2024-03-22T12:18:32;100509.92;;;19.62;37.75
66396;BME280;72184;51.378;-1.342;2024-03-22T12:21:00;100509.69;;;19.62;37.73
66396;BME280;72184;51.378;-1.342;2024-03-22T12:23:28;100514.70;;;19.63;37.70
66396;BME280;72184;51.378;-1.342;2024-03-22T12:25:55;100508.98;;;19.64;37.67
66396;BME280;72184;51.378;-1.342;2024-03-22T12:28:22;100507.51;;;19.64;37.64
66396;BME280;72184;51.378;-1.342;2024-03-22T12:30:49;100509.05;;;19.64;37.60
66396;BME280;72184;51.378;-1.342;2024-03-22T12:33:16;100503.31;;;19.65;37.58
66396;BME280;72184;51.378;-1.342;2024-03-22T12:35:43;100502.21;;;19.65;37.56
66396;BME280;72184;51.378;-1.342;2024-03-22T12:38:11;100495.75;;;19.65;37.55
66396;BME280;72184;51.378;-1.342;2024-03-22T12:40:38;100494.00;;;19.65;37.52